หน้าหลัก
METAR-TAF:

METAR-TAF

ท่าอากาศยาน :

ท่าอากาศยานปูลโกโว

เซนต์ปีเตอร์สเบิร์ก, รัสเซีย

ละติจูด: 59-58N, ลองจิจูด: 030-18E, ความสูง: 4 ม.

การสังเกตสภาพอากาศปัจจุบัน

รายงานได้ทำขึ้นเมื่อ 41 นาทีที่แล้ว ณ เวลา 19:00 UTC
ลม 6 นอตจากตะวันออกเฉียงเหนือ
อุณหภูมิ 11°C
ความชื้น 47%
ความกดอากาศ 1023 hPa
ทัศนวิสัย 10 กม. หรือมากกว่า
ไม่มีเมฆต่ำกว่า 1,500 ม. และไม่มีเมฆคิวมูโลนิมบัส

METAR: ULLI 011900Z 04003MPS CAVOK 11/M00 Q1023 R10R/090060 NOSIG

เวลา: 22:41 (19:41 UTC)

การพยากรณ์

รายงานได้ทำขึ้นเมื่อ 2 ชั่วโมงและ 46 นาทีที่แล้ว ณ เวลา 16:55 UTC
การพยากรณ์มีผลตั้งแต่วันที่ 01 ณ เวลา 18 UTC จนถึงวันที่ 02 ณ เวลา 18 UTC
ลม 6 นอตจากตะวันออกเฉียงเหนือโดยมีลมกระโชกได้ถึง16 นอต
ทัศนวิสัย 10 กม. หรือมากกว่า
มีเมฆกระจายเป็นบางส่วนที่ความสูง 3000 ฟุต
กำลังกลายเป็น
ตั้งแต่วันที่ 02 ณ เวลา 06 UTC จนถึงวันที่ 02 ณ เวลา 08 UTC
ลม 12 นอตจากตะวันออก/ตะวันออกเฉียงเหนือโดยมีลมกระโชกได้ถึง23 นอต

TAF: ULLI 011655Z 0118/0218 05003G08MPS 9999 SCT030 BECMG 0206/0208 07006G12MPS

สังเกตการณ์สภาพอากาศและพยากรณ์อากาศของสนามบินมากกว่า 4000 แห่ง (รายงาน METAR และ TAF).

สถานีที่ดูได้จะแสดงไว้ด้วยจุดสีเหลืองและสีแดงบนแผนที่.

เลื่อนเมาส์ไปเหนือจุดเพื่อดูชื่อสถานี.

แล้วคลิกเพื่อดูสังเกตการณ์และการพยากรณ์สภาพอากาศ.

ในการเปลี่ยนแผนที่: คลิกที่ปุ่มสีเขียวที่มีกากบาทสีดำเพื่อซูมเข้า; ที่ปุ่มสีเขียวที่มีขีดเพื่อซูมออก; หรือที่ลูกศรสีเขียวเพื่อไปยังแผนที่ที่อยู่ติดกัน.


METAR-TAF: